Sanford, Florida
Current Conditions -  °F | °C
As of 10:53 PM on Friday 24 Oct 2014 (Local Time) from KSFB Reporting Station
Broken Clouds Broken Clouds  
Wind Chill: 68°   Ceiling: 4700
Heat Index: 68°   Visibility: 10mi
Dew Point: 58°   Wind: 12mph
Humidity: 70%   Direction: 340°NNW
Pressure: 29.98"   Gusts: NA
Location:  28.81°N, 81.27°W
Report Text: KSFB 250253Z 34010KT 10SM BKN047 20/14 A2998 RMK AO2 SLP152 T02000144 51015
Loading
Personal Weather Stations






























Interactive Weather Map
Tropical Storm Tracking
New forecast layout! Learn more

10-Day Weather Forecast

Advertisements
Track Severe Weather on mobile